Time;durP1;ratioP1;P1;durP2;ratioP2;P2;SDS_P1;SDS_P2;PMS_P1;PMS_P2;Temp;Humidity;BMP_temperature;BMP_pressure;BME280_temperature;BME280_humidity;BME280_pressure;Samples;Min_cycle;Max_cycle;Signal;HPM_P1;HPM_P2
2022/06/18 00:00:48;;;;;;;6.15;3.03;;;;;;;22.43;57.52;101637.56;5062604;28;20029;-79
2022/06/18 00:03:14;;;;;;;5.53;3.00;;;;;;;22.33;58.36;101631.97;5055591;28;20032;-79
2022/06/18 00:05:42;;;;;;;3.30;2.90;;;;;;;22.25;58.64;101628.66;5053900;28;20364;-79
2022/06/18 00:08:13;;;;;;;11.25;3.28;;;;;;;22.22;58.11;101643.00;5054457;28;20029;-79
2022/06/18 00:10:39;;;;;;;7.03;3.20;;;;;;;22.16;58.96;101634.97;5054235;28;20049;-79
2022/06/18 00:13:40;;;;;;;4.82;3.05;;;;;;;22.16;58.06;101632.22;5040726;28;20036;-79
2022/06/18 00:16:14;;;;;;;6.38;3.30;;;;;;;22.08;59.43;101639.06;5036623;28;20025;-83
2022/06/18 00:18:40;;;;;;;4.47;3.22;;;;;;;21.99;59.08;101622.22;5046066;28;20033;-79
2022/06/18 00:21:08;;;;;;;5.70;3.22;;;;;;;21.98;59.88;101636.28;5055878;28;20096;-79
2022/06/18 00:23:37;;;;;;;21.77;3.83;;;;;;;21.97;59.33;101632.69;5053276;28;20117;-79
2022/06/18 00:26:02;;;;;;;16.52;3.53;;;;;;;21.86;59.79;101626.28;5054433;28;20029;-79
2022/06/18 00:28:30;;;;;;;3.80;3.13;;;;;;;21.86;59.66;101629.06;5054129;28;20029;-78
2022/06/18 00:30:57;;;;;;;4.05;3.25;;;;;;;21.82;60.21;101627.13;5037841;28;20021;-79
2022/06/18 00:33:23;;;;;;;5.50;3.30;;;;;;;21.78;60.63;101623.22;5060872;28;20024;-80
2022/06/18 00:35:52;;;;;;;4.72;3.20;;;;;;;21.72;60.57;101627.91;5056150;28;20021;-79
2022/06/18 00:38:31;;;;;;;6.75;3.10;;;;;;;21.72;60.38;101628.72;5059647;28;20068;-79
2022/06/18 00:40:57;;;;;;;6.30;3.10;;;;;;;21.67;60.76;101625.09;5054987;28;20047;-79
2022/06/18 00:43:27;;;;;;;11.60;3.63;;;;;;;21.62;60.83;101625.91;5066971;28;20035;-79
2022/06/18 00:45:59;;;;;;;12.02;3.50;;;;;;;21.55;61.34;101622.56;5059114;28;20048;-80
2022/06/18 00:48:36;;;;;;;7.15;3.40;;;;;;;21.50;61.57;101623.34;5036016;28;20032;-79
2022/06/18 00:51:15;;;;;;;3.72;3.20;;;;;;;21.50;61.62;101616.97;5053894;28;20037;-79
2022/06/18 00:53:56;;;;;;;23.73;3.90;;;;;;;21.42;61.82;101612.81;5053577;28;20489;-79
2022/06/18 00:56:33;;;;;;;7.50;3.50;;;;;;;21.43;61.76;101619.97;5056120;28;20106;-79
2022/06/18 00:59:10;;;;;;;5.97;4.05;;;;;;;21.39;62.11;101625.19;5066517;28;20029;-79
2022/06/18 01:01:40;;;;;;;5.47;3.45;;;;;;;21.34;62.55;101627.91;5052601;28;20025;-79
2022/06/18 01:04:24;;;;;;;4.97;3.53;;;;;;;21.37;61.72;101616.34;5055400;28;20053;-79
2022/06/18 01:06:55;;;;;;;5.70;3.80;;;;;;;21.32;62.83;101616.31;5047593;28;20025;-79
2022/06/18 01:09:20;;;;;;;5.20;3.70;;;;;;;21.27;62.69;101616.31;5052937;28;20150;-79
2022/06/18 01:11:46;;;;;;;8.13;3.97;;;;;;;21.25;62.60;101613.78;5044420;28;20128;-79
2022/06/18 01:14:15;;;;;;;4.20;3.53;;;;;;;21.20;63.06;101599.16;5053006;28;20029;-79
2022/06/18 01:16:40;;;;;;;6.20;3.70;;;;;;;21.22;63.38;101602.47;5052976;28;20029;-79
2022/06/18 01:19:15;;;;;;;4.55;3.60;;;;;;;21.19;63.38;101611.28;5054690;28;20468;-79
2022/06/18 01:22:09;;;;;;;5.25;3.92;;;;;;;21.15;62.95;101601.88;5054623;28;20021;-79
2022/06/18 01:24:40;;;;;;;5.43;3.85;;;;;;;21.11;63.57;101601.59;5040143;28;20021;-82
2022/06/18 01:27:08;;;;;;;5.68;3.70;;;;;;;21.08;64.22;101599.38;5041727;28;20025;-80
2022/06/18 01:29:34;;;;;;;6.88;3.85;;;;;;;21.08;63.92;101596.59;5062463;28;20458;-79
2022/06/18 01:32:01;;;;;;;4.45;3.72;;;;;;;21.04;64.04;101599.03;5056203;28;20041;-79
2022/06/18 01:34:27;;;;;;;7.60;4.00;;;;;;;21.02;64.11;101601.22;5052469;28;20029;-79
2022/06/18 01:36:53;;;;;;;5.80;3.95;;;;;;;20.99;64.09;101593.50;5061807;28;20020;-79
2022/06/18 01:39:23;;;;;;;7.82;3.78;;;;;;;20.92;64.44;101598.41;5063617;28;20127;-79
2022/06/18 01:41:55;;;;;;;8.60;3.90;;;;;;;20.92;64.91;101601.16;5050896;28;20044;-79
2022/06/18 01:44:34;;;;;;;6.80;4.25;;;;;;;20.88;64.63;101594.50;5053557;28;20052;-79
2022/06/18 01:47:05;;;;;;;7.97;4.00;;;;;;;20.85;64.75;101593.13;5051965;28;20062;-79
2022/06/18 01:49:53;;;;;;;7.57;4.38;;;;;;;20.86;64.19;101593.94;5054117;28;20469;-79
2022/06/18 01:52:23;;;;;;;7.53;4.10;;;;;;;20.80;65.11;101600.50;5065611;28;20020;-79
2022/06/18 01:54:53;;;;;;;6.35;4.10;;;;;;;20.77;65.01;101595.50;5053499;28;20032;-79
2022/06/18 01:57:25;;;;;;;7.50;4.35;;;;;;;20.67;65.51;101588.81;5052307;28;20025;-79
2022/06/18 01:59:56;;;;;;;5.95;4.07;;;;;;;20.71;65.56;101587.22;5053668;28;20029;-79
2022/06/18 02:02:21;;;;;;;6.00;4.53;;;;;;;20.69;65.61;101583.06;5057750;28;20520;-79
2022/06/18 02:04:47;;;;;;;8.85;4.85;;;;;;;20.68;65.79;101581.38;5054234;28;20115;-79
2022/06/18 02:07:15;;;;;;;6.72;4.35;;;;;;;20.64;66.11;101574.72;5054283;28;20029;-79
2022/06/18 02:09:55;;;;;;;6.45;4.47;;;;;;;20.63;66.24;101578.56;5052417;28;20048;-79
2022/06/18 02:12:25;;;;;;;7.03;4.80;;;;;;;20.60;66.60;101579.09;5063469;28;20025;-79
2022/06/18 02:14:57;;;;;;;8.02;4.80;;;;;;;20.61;66.07;101576.06;5052225;28;20032;-79
2022/06/18 02:17:26;;;;;;;8.90;4.50;;;;;;;20.55;66.66;101571.63;5049978;28;20032;-79
2022/06/18 02:19:56;;;;;;;7.03;4.75;;;;;;;20.52;66.56;101570.22;5052041;28;20481;-79
2022/06/18 02:22:29;;;;;;;7.10;4.82;;;;;;;20.53;66.57;101579.31;5053256;28;20032;-79
2022/06/18 02:24:55;;;;;;;8.63;5.13;;;;;;;20.40;67.14;101564.88;5035816;28;20028;-79
2022/06/18 02:27:22;;;;;;;9.05;4.97;;;;;;;20.41;67.27;101572.06;5048762;28;20025;-79
2022/06/18 02:29:47;;;;;;;7.40;5.07;;;;;;;20.41;67.38;101566.56;5052331;28;20025;-79
2022/06/18 02:32:34;;;;;;;7.53;4.93;;;;;;;20.42;66.94;101567.38;5060043;28;20495;-79
2022/06/18 02:34:59;;;;;;;6.18;5.10;;;;;;;20.39;67.33;101568.72;5057739;28;20043;-79
2022/06/18 02:37:28;;;;;;;7.32;5.13;;;;;;;20.40;67.19;101570.38;5053034;28;20461;-79
2022/06/18 02:39:55;;;;;;;7.07;5.30;;;;;;;20.35;67.63;101573.09;5033963;28;20029;-79
2022/06/18 02:42:21;;;;;;;7.20;4.97;;;;;;;20.31;67.91;101569.19;5053597;28;20017;-79
2022/06/18 02:44:48;;;;;;;10.95;5.95;;;;;;;20.30;67.52;101575.78;5046662;28;20038;-79
2022/06/18 02:47:15;;;;;;;10.88;5.60;;;;;;;20.30;68.17;101581.28;5052230;28;20100;-78
2022/06/18 02:49:57;;;;;;;8.55;5.70;;;;;;;20.22;68.13;101568.84;5051867;28;20439;-79
2022/06/18 02:52:27;;;;;;;7.50;5.60;;;;;;;20.20;67.85;101564.69;5060322;28;20021;-79
2022/06/18 02:55:17;;;;;;;11.90;5.85;;;;;;;20.20;67.75;101575.69;5073649;28;20028;-79
2022/06/18 02:57:43;;;;;;;7.60;5.50;;;;;;;20.19;68.18;101563.00;5056461;28;20120;-79
2022/06/18 03:00:12;;;;;;;10.63;5.78;;;;;;;20.18;68.15;101566.84;5056690;28;20442;-79
2022/06/18 03:02:38;;;;;;;10.93;5.65;;;;;;;20.15;68.48;101572.88;5055824;28;20422;-79
2022/06/18 03:05:25;;;;;;;8.38;6.00;;;;;;;20.18;67.34;101577.84;5054837;28;20116;-79
2022/06/18 03:07:51;;;;;;;8.80;5.63;;;;;;;20.13;68.24;101575.06;5040757;28;20021;-79
2022/06/18 03:13:01;;;;;;;8.38;6.20;;;;;;;20.06;68.41;101576.09;5050224;28;20500;-79
2022/06/18 03:15:30;;;;;;;9.30;5.63;;;;;;;20.02;68.60;101572.19;5048483;28;20033;-79
2022/06/18 03:21:17;;;;;;;12.13;6.63;;;;;;;20.00;68.49;101577.09;5063048;28;20101;-79
2022/06/18 03:23:44;;;;;;;9.73;6.30;;;;;;;19.96;68.90;101580.66;5075253;28;20029;-79
2022/06/18 03:26:09;;;;;;;10.38;6.82;;;;;;;19.96;68.64;101580.66;5059685;28;20021;-79
2022/06/18 03:28:35;;;;;;;12.23;6.32;;;;;;;19.93;68.96;101592.16;5056263;28;20090;-79
2022/06/18 03:31:01;;;;;;;8.55;6.88;;;;;;;19.89;69.16;101586.34;5056288;28;20052;-79
2022/06/18 03:33:26;;;;;;;11.20;6.55;;;;;;;19.88;69.02;101587.41;5055884;28;20032;-79
2022/06/18 03:35:52;;;;;;;10.38;6.68;;;;;;;19.86;69.20;101586.84;5056936;28;20037;-79
2022/06/18 03:38:18;;;;;;;9.98;6.78;;;;;;;19.84;68.82;101584.38;5055416;28;20032;-79
2022/06/18 03:40:45;;;;;;;12.23;6.82;;;;;;;19.78;68.85;101584.53;5072821;28;20035;-79
2022/06/18 03:43:12;;;;;;;11.95;6.97;;;;;;;19.81;69.33;101581.28;5067317;28;20025;-79
2022/06/18 03:45:42;;;;;;;14.35;7.30;;;;;;;19.81;68.88;101600.53;5054616;28;20421;-79
2022/06/18 03:48:16;;;;;;;13.15;7.43;;;;;;;19.79;69.04;101599.94;5071732;28;20380;-79
2022/06/18 03:50:41;;;;;;;13.27;7.00;;;;;;;19.76;69.32;101586.69;5034528;28;20029;-79
2022/06/18 03:53:08;;;;;;;11.02;7.03;;;;;;;19.76;69.36;101592.19;5059957;28;20037;-79
2022/06/18 03:55:33;;;;;;;13.75;7.57;;;;;;;19.76;69.15;101593.03;5056602;28;20036;-79
2022/06/18 03:57:59;;;;;;;11.45;6.78;;;;;;;19.74;68.47;101574.03;5055460;28;20029;-79
2022/06/18 04:00:24;;;;;;;9.80;6.75;;;;;;;19.77;69.09;101574.59;5035113;28;20120;-79
2022/06/18 04:02:49;;;;;;;11.48;6.60;;;;;;;19.76;68.77;101571.03;5054928;28;20075;-79
2022/06/18 04:05:15;;;;;;;11.43;7.05;;;;;;;19.82;68.47;101577.47;5036563;28;20433;-79
2022/06/18 04:07:42;;;;;;;11.90;7.30;;;;;;;19.76;68.65;101568.28;5054490;28;20028;-79
2022/06/18 04:10:08;;;;;;;13.82;7.93;;;;;;;19.84;68.63;101572.53;5038060;28;20079;-80
2022/06/18 04:12:34;;;;;;;14.80;8.20;;;;;;;19.91;67.81;101581.44;5054145;28;20464;-79
2022/06/18 04:14:59;;;;;;;17.25;8.38;;;;;;;19.92;68.00;101574.81;5055081;28;20058;-79
2022/06/18 04:17:24;;;;;;;17.98;8.77;;;;;;;19.85;67.48;101553.00;5054024;28;20373;-82
2022/06/18 04:19:50;;;;;;;16.97;9.03;;;;;;;19.95;67.95;101568.81;5054247;28;20037;-79
2022/06/18 04:22:16;;;;;;;17.88;9.13;;;;;;;19.97;68.26;101574.88;5055742;28;20028;-79
2022/06/18 04:24:41;;;;;;;14.65;8.68;;;;;;;19.99;68.13;101567.22;5054222;28;20158;-79
2022/06/18 04:27:07;;;;;;;13.10;8.30;;;;;;;20.02;68.12;101568.63;5055355;28;20082;-79
2022/06/18 04:29:33;;;;;;;12.95;8.35;;;;;;;20.02;68.36;101566.69;5053936;28;20071;-79
2022/06/18 04:31:59;;;;;;;15.05;8.07;;;;;;;20.05;68.85;101573.59;5054538;28;20059;-79
2022/06/18 04:34:25;;;;;;;10.77;7.18;;;;;;;20.04;68.99;101564.50;5059042;28;20032;-79
2022/06/18 04:36:50;;;;;;;12.48;7.53;;;;;;;20.04;68.45;101567.25;5062939;28;20028;-79
2022/06/18 04:39:16;;;;;;;12.35;7.85;;;;;;;20.07;68.17;101566.75;5061167;28;20071;-79
2022/06/18 04:41:41;;;;;;;10.75;7.35;;;;;;;20.05;68.12;101568.91;5060657;28;20115;-79
2022/06/18 04:44:07;;;;;;;14.13;8.30;;;;;;;20.08;69.09;101571.16;5053515;28;20048;-79
2022/06/18 04:46:33;;;;;;;13.27;7.97;;;;;;;20.12;68.56;101581.66;5052721;28;20628;-79
2022/06/18 04:48:58;;;;;;;11.85;7.97;;;;;;;20.11;68.79;101572.56;5070802;28;20494;-79
2022/06/18 04:51:24;;;;;;;13.43;7.93;;;;;;;20.12;68.76;101576.16;5066558;28;20037;-79
2022/06/18 04:53:49;;;;;;;12.80;7.82;;;;;;;20.19;68.74;101582.28;5034923;28;20021;-80
2022/06/18 04:56:15;;;;;;;11.40;8.30;;;;;;;20.23;68.56;101580.66;5054817;28;20087;-79
2022/06/18 04:58:41;;;;;;;14.07;8.30;;;;;;;20.23;68.89;101580.66;5044934;28;20036;-79
2022/06/18 05:01:07;;;;;;;13.15;7.65;;;;;;;20.27;69.70;101584.56;5072270;28;20047;-79
2022/06/18 05:03:33;;;;;;;17.90;8.00;;;;;;;20.30;69.64;101589.53;5023560;28;20411;-79
2022/06/18 05:05:58;;;;;;;14.73;8.30;;;;;;;20.32;68.35;101579.13;5052391;28;20017;-79
2022/06/18 05:08:25;;;;;;;12.80;8.45;;;;;;;20.31;69.57;101582.94;5052719;28;20469;-79
2022/06/18 05:10:50;;;;;;;11.75;8.05;;;;;;;20.38;68.33;101586.31;5053391;28;20386;-79
2022/06/18 05:13:16;;;;;;;14.40;8.07;;;;;;;20.42;69.08;101590.22;5052371;28;20063;-79
2022/06/18 05:15:42;;;;;;;16.73;8.30;;;;;;;20.45;68.48;101582.53;5056103;28;20029;-79
2022/06/18 05:18:13;;;;;;;13.93;8.20;;;;;;;20.50;68.33;101585.34;5054094;28;20037;-79
2022/06/18 05:20:38;;;;;;;16.15;8.63;;;;;;;20.53;68.45;101587.56;5042148;28;20035;-79
2022/06/18 05:23:04;;;;;;;14.90;8.70;;;;;;;20.56;67.67;101587.88;5052567;28;20029;-79
2022/06/18 05:25:29;;;;;;;12.95;8.80;;;;;;;20.62;67.80;101599.78;5049665;28;20045;-79
2022/06/18 05:27:54;;;;;;;16.35;9.00;;;;;;;20.66;68.38;101598.16;5052900;28;20111;-79
2022/06/18 05:30:22;;;;;;;12.05;8.40;;;;;;;20.68;68.07;101592.38;5035942;28;20040;-79
2022/06/18 05:32:47;;;;;;;15.85;8.88;;;;;;;20.75;67.94;101601.28;5036337;28;20107;-79
2022/06/18 05:35:13;;;;;;;14.23;9.25;;;;;;;20.74;67.97;101594.94;5053255;28;20068;-79
2022/06/18 05:37:39;;;;;;;15.55;8.98;;;;;;;20.84;68.09;101598.88;5054655;28;20029;-79
2022/06/18 05:40:06;;;;;;;15.70;9.90;;;;;;;20.85;67.58;101595.06;5053662;28;20032;-79
2022/06/18 05:42:32;;;;;;;13.40;9.10;;;;;;;20.93;68.17;101602.81;5054443;28;20025;-79
2022/06/18 05:44:58;;;;;;;18.02;9.80;;;;;;;20.98;66.61;101605.59;5051417;28;20032;-79
2022/06/18 05:47:31;;;;;;;16.27;9.80;;;;;;;20.98;67.44;101608.34;5053419;28;20103;-79
2022/06/18 05:49:56;;;;;;;19.90;10.73;;;;;;;21.06;67.48;101613.38;5047564;28;20033;-79
2022/06/18 05:52:22;;;;;;;25.58;9.73;;;;;;;21.11;67.96;101617.28;5050859;28;20074;-78
2022/06/18 05:54:48;;;;;;;15.13;9.77;;;;;;;21.14;67.62;101612.06;5046750;28;20033;-78
2022/06/18 05:57:13;;;;;;;15.68;9.57;;;;;;;21.19;67.59;101609.34;5049016;28;20025;-78
2022/06/18 05:59:39;;;;;;;17.45;9.13;;;;;;;21.22;67.47;101608.81;5050708;28;20090;-78
2022/06/18 06:02:05;;;;;;;17.70;9.88;;;;;;;21.33;66.01;101608.91;5053841;28;20094;-78
2022/06/18 06:04:30;;;;;;;14.07;9.63;;;;;;;21.41;67.16;101600.94;5053258;28;20040;-78
2022/06/18 06:07:15;;;;;;;15.98;10.07;;;;;;;21.46;65.00;101604.81;5020020;28;20445;-78
2022/06/18 06:12:25;;;;;;;16.27;10.05;;;;;;;21.57;64.64;101592.81;5050345;28;20062;-78
2022/06/18 06:14:50;;;;;;;17.83;10.13;;;;;;;21.54;64.90;101585.91;5047573;28;20714;-79
2022/06/18 06:17:20;;;;;;;15.07;10.30;;;;;;;21.64;65.04;101590.63;5048742;28;20033;-78
2022/06/18 06:19:46;;;;;;;16.10;10.35;;;;;;;21.75;65.80;101589.56;5048982;28;20468;-79
2022/06/18 06:22:12;;;;;;;17.33;10.18;;;;;;;21.82;64.32;101586.56;5049601;28;20037;-78
2022/06/18 06:24:37;;;;;;;16.30;10.30;;;;;;;21.86;63.67;101589.63;5051991;28;20044;-78
2022/06/18 06:27:03;;;;;;;14.13;9.60;;;;;;;21.89;62.89;101589.06;5047550;28;20025;-78
2022/06/18 06:29:28;;;;;;;18.73;9.35;;;;;;;21.95;63.23;101593.50;5031769;28;20027;-78
2022/06/18 06:31:54;;;;;;;17.65;10.18;;;;;;;21.96;63.19;101589.63;5047116;28;20025;-78
2022/06/18 06:34:19;;;;;;;19.77;10.40;;;;;;;21.97;62.83;101582.19;5048482;28;20028;-79
2022/06/18 06:36:44;;;;;;;16.55;9.95;;;;;;;22.15;63.59;101595.47;5049918;28;20025;-80
2022/06/18 06:39:10;;;;;;;16.95;10.05;;;;;;;22.14;63.37;101593.00;5028538;28;20041;-79
2022/06/18 06:41:35;;;;;;;15.95;9.90;;;;;;;22.24;64.28;101595.81;5050687;28;20029;-81
2022/06/18 06:44:01;;;;;;;14.43;9.48;;;;;;;22.24;62.53;101587.53;5049902;28;20039;-80
2022/06/18 06:46:27;;;;;;;14.63;9.77;;;;;;;22.28;63.16;101596.91;5054936;28;20033;-78
2022/06/18 06:48:52;;;;;;;17.08;10.05;;;;;;;22.34;63.22;101590.31;5070280;28;20504;-79
2022/06/18 06:51:23;;;;;;;18.90;9.85;;;;;;;22.36;62.09;101599.16;5058485;28;20021;-79
2022/06/18 06:53:49;;;;;;;15.13;9.52;;;;;;;22.40;61.99;101593.94;5066384;28;20087;-79
2022/06/18 06:59:18;;;;;;;20.10;10.65;;;;;;;22.73;63.13;101592.56;5000648;28;20038;-79
2022/06/18 07:01:43;;;;;;;14.38;9.40;;;;;;;22.79;63.54;101585.09;5036484;28;20052;-82
2022/06/18 07:04:11;;;;;;;16.55;8.88;;;;;;;22.94;63.85;101600.84;5043319;28;20418;-81
2022/06/18 07:06:37;;;;;;;18.35;9.35;;;;;;;23.00;61.89;101599.75;5041967;28;20042;-82
2022/06/18 07:09:03;;;;;;;20.38;9.98;;;;;;;23.02;60.84;101600.28;5043639;28;20044;-81
2022/06/18 07:11:29;;;;;;;17.30;9.52;;;;;;;23.06;60.52;101595.03;5043429;28;20106;-82
2022/06/18 07:13:54;;;;;;;16.50;9.25;;;;;;;23.18;64.23;101597.56;5042698;28;20036;-81
2022/06/18 07:16:19;;;;;;;18.77;10.15;;;;;;;23.29;61.51;101596.41;5043533;28;20029;-82
2022/06/18 07:18:45;;;;;;;17.67;9.00;;;;;;;23.39;59.98;101609.38;5042208;28;20062;-82
2022/06/18 07:21:15;;;;;;;16.65;9.25;;;;;;;23.55;60.62;101602.69;5042949;28;20029;-82
2022/06/18 07:23:41;;;;;;;18.35;9.50;;;;;;;23.71;61.85;101606.25;5042901;28;20033;-82
2022/06/18 07:26:07;;;;;;;20.08;9.45;;;;;;;23.77;59.53;101602.38;5043549;28;20037;-81
2022/06/18 07:28:33;;;;;;;18.67;9.15;;;;;;;23.80;60.22;101598.22;5043525;28;20040;-81
2022/06/18 07:30:59;;;;;;;13.52;8.90;;;;;;;24.00;61.32;101596.47;5043526;28;20032;-82
2022/06/18 07:33:26;;;;;;;18.85;10.15;;;;;;;24.07;61.21;101595.06;5043191;28;20940;-82
2022/06/18 07:35:52;;;;;;;17.88;9.45;;;;;;;24.18;60.53;101595.00;5044382;28;20155;-82
2022/06/18 07:38:18;;;;;;;13.98;8.95;;;;;;;24.21;59.57;101594.44;5042850;28;20574;-80
2022/06/18 07:40:51;;;;;;;15.82;9.93;;;;;;;24.26;59.25;101594.38;5054671;28;20039;-82
2022/06/18 07:43:44;;;;;;;16.93;9.43;;;;;;;24.35;59.15;101595.44;5061782;28;20048;-79
2022/06/18 07:46:13;;;;;;;18.95;9.73;;;;;;;24.38;59.82;101592.09;5042447;28;20283;-80
2022/06/18 07:48:40;;;;;;;18.60;9.65;;;;;;;24.29;58.04;101591.06;5054623;28;20037;-80
2022/06/18 07:51:06;;;;;;;17.25;10.20;;;;;;;24.53;62.01;101593.09;5049924;28;20118;-80
2022/06/18 07:53:32;;;;;;;18.85;9.52;;;;;;;24.62;60.31;101588.63;5049775;28;20044;-82
2022/06/18 07:55:58;;;;;;;16.75;9.98;;;;;;;24.59;57.81;101587.25;5043454;28;20040;-82
2022/06/18 07:58:26;;;;;;;16.27;9.13;;;;;;;24.73;57.71;101584.66;5041570;28;20037;-83
2022/06/18 08:00:52;;;;;;;15.95;9.30;;;;;;;24.91;58.01;101587.84;5042601;28;20075;-83
2022/06/18 08:03:18;;;;;;;19.52;10.23;;;;;;;24.94;58.43;101576.16;5026903;28;20420;-83
2022/06/18 08:05:44;;;;;;;17.23;9.15;;;;;;;25.11;58.37;101584.88;5023959;28;20040;-81
2022/06/18 08:08:12;;;;;;;21.27;10.52;;;;;;;25.06;56.65;101573.00;5040883;28;20124;-80
2022/06/18 08:10:40;;;;;;;18.58;10.00;;;;;;;25.20;59.91;101573.13;5040263;28;20191;-81
2022/06/18 08:13:06;;;;;;;18.55;10.02;;;;;;;25.31;56.72;101574.69;5041520;28;20025;-80
2022/06/18 08:15:32;;;;;;;18.30;9.73;;;;;;;25.50;57.15;101576.72;5042330;28;20384;-81
2022/06/18 08:17:58;;;;;;;19.40;9.50;;;;;;;25.53;55.94;101571.41;5042910;28;20041;-81
2022/06/18 08:20:25;;;;;;;21.00;10.57;;;;;;;25.64;55.02;101568.53;5042097;28;20044;-82
2022/06/18 08:22:55;;;;;;;19.20;9.27;;;;;;;25.75;57.22;101568.06;5041085;28;21174;-81
2022/06/18 08:25:23;;;;;;;18.20;9.93;;;;;;;25.85;54.85;101557.97;5042450;28;20079;-82
2022/06/18 08:27:50;;;;;;;16.25;9.25;;;;;;;25.97;53.17;101566.69;5042018;28;20036;-83
2022/06/18 08:30:16;;;;;;;15.18;8.77;;;;;;;26.15;54.55;101567.84;5041645;28;20059;-83
2022/06/18 08:32:42;;;;;;;20.55;9.10;;;;;;;26.33;59.09;101557.88;5042668;28;20021;-83
2022/06/18 08:35:08;;;;;;;16.42;8.93;;;;;;;26.57;56.04;101559.69;5041444;28;20041;-81
2022/06/18 08:37:34;;;;;;;17.65;9.93;;;;;;;26.51;52.53;101555.38;5042006;28;20041;-83
2022/06/18 08:40:00;;;;;;;17.20;9.25;;;;;;;26.66;51.67;101557.88;5041355;28;20041;-82
2022/06/18 08:42:25;;;;;;;18.17;8.90;;;;;;;26.90;55.47;101559.72;5042335;28;20033;-83
2022/06/18 08:45:09;;;;;;;16.02;8.95;;;;;;;27.24;52.72;101569.66;5042017;28;20032;-83
2022/06/18 08:47:37;;;;;;;;;;;;;;;27.72;52.91;101566.47;5042438;28;20029;-82
2022/06/18 08:50:40;;;;;;;16.83;9.43;;;;;;;27.84;52.15;101574.31;5041458;28;19924;-83
2022/06/18 08:53:36;;;;;;;18.20;7.80;;;;;;;27.94;49.75;101567.69;5041030;28;20028;-81
2022/06/18 08:56:48;;;;;;;14.45;7.00;;;;;;;28.37;52.83;101575.66;5042581;28;20028;-81
2022/06/18 08:59:22;;;;;;;17.52;8.15;;;;;;;28.23;48.63;101574.84;5020652;28;21373;-81
2022/06/18 09:02:33;;;;;;;17.35;8.00;;;;;;;28.73;50.78;101573.97;5041027;28;20091;-81
2022/06/18 09:05:07;;;;;;;15.40;6.50;;;;;;;29.20;51.01;101571.59;5040893;28;20040;-81
2022/06/18 09:07:54;;;;;;;16.90;7.45;;;;;;;29.28;49.57;101570.00;5041525;28;20082;-81
2022/06/18 09:10:28;;;;;;;14.52;7.43;;;;;;;29.30;47.97;101570.50;5041316;28;20792;-82
2022/06/18 09:13:15;;;;;;;18.40;7.50;;;;;;;29.88;48.51;101582.53;5040876;28;20036;-82
2022/06/18 09:15:46;;;;;;;16.33;7.75;;;;;;;29.83;48.49;101584.63;5040684;28;20159;-82
2022/06/18 09:18:16;;;;;;;21.95;8.07;;;;;;;29.92;48.69;101582.69;5041245;28;20480;-81
2022/06/18 09:20:51;;;;;;;18.20;9.60;;;;;;;29.81;47.01;101582.97;5039541;28;20985;-82
2022/06/18 09:23:24;;;;;;;16.70;9.18;;;;;;;29.54;47.23;101586.00;5042278;28;20123;-82
2022/06/18 09:25:52;;;;;;;19.40;8.43;;;;;;;29.98;44.90;101585.00;5041510;28;21390;-82
2022/06/18 09:28:33;;;;;;;18.20;8.65;;;;;;;30.12;45.76;101575.66;5024148;28;20853;-78
2022/06/18 09:31:06;;;;;;;18.17;8.25;;;;;;;30.04;46.29;101574.50;5051709;28;20032;-78
2022/06/18 09:33:40;;;;;;;16.92;8.05;;;;;;;29.97;47.69;101580.59;5050734;28;20025;-80
2022/06/18 09:36:11;;;;;;;15.50;7.35;;;;;;;29.55;44.05;101574.56;5039604;28;20043;-83
2022/06/18 09:38:42;;;;;;;15.25;6.50;;;;;;;29.63;44.11;101570.97;5041387;28;20078;-81
2022/06/18 09:41:17;;;;;;;14.45;7.03;;;;;;;29.33;44.46;101561.47;5042033;28;20106;-82
2022/06/18 09:43:52;;;;;;;14.93;6.40;;;;;;;29.39;45.45;101564.94;5044052;28;20037;-81
2022/06/18 09:46:25;;;;;;;19.48;7.00;;;;;;;29.91;44.56;101567.91;5053723;28;20029;-81
2022/06/18 09:48:51;;;;;;;16.27;7.13;;;;;;;30.34;42.83;101562.66;5053744;28;20021;-81
2022/06/18 09:51:39;;;;;;;19.27;7.13;;;;;;;30.79;44.20;101557.53;5044913;28;20078;-82
2022/06/18 09:54:07;;;;;;;12.25;6.28;;;;;;;30.78;45.49;101553.09;5040697;28;20120;-83
2022/06/18 09:56:38;;;;;;;19.80;7.70;;;;;;;30.71;43.08;101547.19;5041273;28;20459;-84
2022/06/18 09:59:11;;;;;;;26.98;7.30;;;;;;;30.81;43.82;101557.19;5039987;28;20045;-82
2022/06/18 10:01:41;;;;;;;;;;;;;;;31.90;43.65;101554.06;5040380;28;20044;-82
2022/06/18 10:06:55;;;;;;;13.68;6.13;;;;;;;32.16;42.28;101542.69;5050043;28;20044;-81
2022/06/18 10:09:54;;;;;;;14.20;6.45;;;;;;;32.22;43.42;101537.66;5043075;28;20070;-83
2022/06/18 10:12:20;;;;;;;17.73;6.55;;;;;;;31.71;40.03;101532.94;5035983;28;20048;-83
2022/06/18 10:14:48;;;;;;;16.23;6.57;;;;;;;31.38;39.45;101536.41;5039692;28;20546;-82
2022/06/18 10:17:27;;;;;;;21.75;7.82;;;;;;;31.72;40.91;101537.38;5040511;28;20044;-82
2022/06/18 10:20:10;;;;;;;16.42;6.25;;;;;;;31.53;39.82;101537.81;5023158;28;20041;-83
2022/06/18 10:22:51;;;;;;;14.00;5.63;;;;;;;31.29;39.64;101533.66;5040021;28;20799;-81
2022/06/18 10:25:25;;;;;;;12.40;5.43;;;;;;;31.44;40.32;101539.84;5039961;28;20046;-82
2022/06/18 10:28:01;;;;;;;14.85;5.90;;;;;;;31.47;41.82;101542.78;5041335;28;20037;-84
2022/06/18 10:30:58;;;;;;;12.55;5.47;;;;;;;31.91;40.56;101538.91;5040990;28;20065;-83
2022/06/18 10:33:29;;;;;;;15.23;6.10;;;;;;;31.64;42.91;101539.06;5022156;28;20041;-85
2022/06/18 10:36:15;;;;;;;14.98;6.72;;;;;;;31.67;41.60;101531.97;5040061;28;20413;-82
2022/06/18 10:38:52;;;;;;;12.20;6.22;;;;;;;31.86;40.77;101539.09;5041081;28;20040;-83
2022/06/18 10:41:29;;;;;;;14.38;7.18;;;;;;;31.49;40.23;101534.84;5040643;28;20588;-82
2022/06/18 10:44:12;;;;;;;20.67;7.75;;;;;;;31.49;41.33;101523.66;5040903;28;20071;-82
2022/06/18 10:46:37;;;;;;;20.90;6.90;;;;;;;31.65;40.77;101525.91;5040348;28;20032;-78
2022/06/18 10:49:06;;;;;;;13.80;6.28;;;;;;;31.83;41.12;101523.00;5040993;28;20037;-81
2022/06/18 10:51:49;;;;;;;16.85;6.63;;;;;;;31.99;41.29;101510.81;5039486;28;20469;-78
2022/06/18 10:54:26;;;;;;;15.57;6.07;;;;;;;32.06;41.01;101510.25;5040319;28;20032;-79
2022/06/18 10:56:56;;;;;;;16.30;6.82;;;;;;;31.89;39.43;101518.81;5025284;28;20051;-81
2022/06/18 10:59:29;;;;;;;16.38;6.20;;;;;;;31.88;38.48;101514.34;5041042;28;21315;-79
2022/06/18 11:01:54;;;;;;;14.25;6.40;;;;;;;31.84;42.08;101507.78;5040853;28;20618;-82
2022/06/18 11:04:25;;;;;;;16.67;5.90;;;;;;;31.93;40.12;101505.75;5041302;28;20037;-81
2022/06/18 11:07:00;;;;;;;15.48;5.63;;;;;;;31.99;38.96;101504.41;5040726;28;20035;-81
2022/06/18 11:09:56;;;;;;;14.73;5.45;;;;;;;32.41;38.95;101507.16;5039137;28;20028;-81
2022/06/18 11:12:31;;;;;;;14.05;5.95;;;;;;;32.34;38.04;101503.28;5040991;28;20186;-81
2022/06/18 11:14:57;;;;;;;16.67;6.22;;;;;;;32.02;38.51;101494.47;5041213;28;20036;-80
2022/06/18 11:17:32;;;;;;;16.00;6.07;;;;;;;32.22;39.45;101493.66;5040325;28;20039;-80
2022/06/18 11:20:19;;;;;;;12.15;6.00;;;;;;;32.31;39.34;101490.75;5046428;28;20067;-79
2022/06/18 11:22:54;;;;;;;13.20;5.47;;;;;;;32.23;37.59;101486.06;5030451;28;20286;-80
2022/06/18 11:25:22;;;;;;;12.90;5.70;;;;;;;32.08;38.62;101482.72;5058246;28;20078;-79
2022/06/18 11:27:48;;;;;;;14.68;5.70;;;;;;;32.38;39.02;101473.38;5035639;28;20522;-79
2022/06/18 11:30:28;;;;;;;14.18;6.40;;;;;;;32.03;38.16;101465.28;5052461;28;20028;-79
2022/06/18 11:32:53;;;;;;;16.75;6.05;;;;;;;31.75;37.82;101463.84;5045932;28;20516;-79
2022/06/18 11:35:25;;;;;;;19.45;6.22;;;;;;;31.67;37.82;101467.56;5021664;28;20065;-78
2022/06/18 11:37:59;;;;;;;17.27;5.90;;;;;;;32.10;39.89;101460.75;5038180;28;20205;-80
2022/06/18 11:40:24;;;;;;;15.63;5.50;;;;;;;32.29;41.35;101451.84;5039596;28;20041;-80
2022/06/18 11:42:53;;;;;;;16.10;5.95;;;;;;;32.30;39.26;101447.06;5021727;28;20098;-79
2022/06/18 11:45:53;;;;;;;14.40;6.03;;;;;;;32.85;39.34;101446.97;5041388;28;20116;-80
2022/06/18 11:48:27;;;;;;;21.45;6.70;;;;;;;32.17;37.29;101442.59;5043149;28;20036;-81